Airport View

Enter AWOS ICAO identifier for current METAR.

ex. KFNL

K42J 220110Z AUTO 10006KT 10SM CLR 22/19 A3039 RMK AO1 TSNO

22 Feb 2018 01:10

Frequency: 124.275

Phone: 352-473-8273

Other Area AWOS: KGNV - K28J - KVQQ - KHEG

TAF KGNV 212341Z 2200/2224 10005KT P6SM SCT015 FM220900 00000KT 6SM BR SCT006 BKN012 FM221100 00000KT 2SM BR SCT002 BKN006 FM221400 09008KT P6SM SCT025